Time;durP1;ratioP1;P1;durP2;ratioP2;P2;SDS_P1;SDS_P2;PMS_P1;PMS_P2;Temp;Humidity;BMP_temperature;BMP_pressure;BME280_temperature;BME280_humidity;BME280_pressure;Samples;Min_cycle;Max_cycle;Signal;HPM_P1;HPM_P2
2023/04/15 00:02:17;;;;;;;9.63;4.55;;;8.20;99.90;;;;;;5087541;28;19923;-71
2023/04/15 00:04:47;;;;;;;11.13;4.15;;;8.10;99.90;;;;;;5080805;28;20052;-71
2023/04/15 00:07:13;;;;;;;9.50;4.38;;;8.10;99.90;;;;;;5086802;28;20044;-71
2023/04/15 00:09:41;;;;;;;9.63;4.43;;;8.00;99.90;;;;;;5089826;28;20059;-72
2023/04/15 00:12:06;;;;;;;11.75;4.53;;;8.00;99.90;;;;;;5085324;28;20043;-71
2023/04/15 00:14:34;;;;;;;8.45;4.82;;;7.90;99.90;;;;;;5109802;28;20093;-71
2023/04/15 00:17:00;;;;;;;8.38;4.50;;;7.90;99.90;;;;;;5109348;28;20042;-76
2023/04/15 00:19:26;;;;;;;9.55;4.15;;;7.90;99.90;;;;;;5109666;28;20039;-71
2023/04/15 00:21:51;;;;;;;10.52;4.53;;;7.80;99.90;;;;;;5107547;28;20046;-71
2023/04/15 00:24:17;;;;;;;11.38;5.10;;;7.80;99.90;;;;;;5096174;28;20050;-71
2023/04/15 00:26:43;;;;;;;13.77;4.78;;;7.70;99.90;;;;;;5059039;28;20123;-70
2023/04/15 00:29:09;;;;;;;11.70;4.63;;;7.60;99.90;;;;;;5093150;28;20067;-71
2023/04/15 00:31:35;;;;;;;11.95;4.55;;;7.60;99.90;;;;;;5093952;28;20097;-73
2023/04/15 00:34:01;;;;;;;8.32;4.57;;;7.60;99.90;;;;;;5092676;28;20044;-76
2023/04/15 00:36:27;;;;;;;11.75;4.80;;;7.60;99.90;;;;;;5075559;28;20096;-70
2023/04/15 00:38:52;;;;;;;13.23;4.43;;;7.60;99.90;;;;;;5092950;28;20043;-71
2023/04/15 00:41:19;;;;;;;9.63;4.55;;;7.50;99.90;;;;;;5093286;28;20055;-70
2023/04/15 00:43:45;;;;;;;15.20;5.47;;;7.50;99.90;;;;;;5093288;28;20076;-72
2023/04/15 00:46:14;;;;;;;10.30;4.35;;;7.60;99.90;;;;;;5113636;28;20126;-70
2023/04/15 00:48:41;;;;;;;10.85;4.78;;;7.60;99.90;;;;;;5112367;28;20048;-70
2023/04/15 00:51:07;;;;;;;10.65;4.82;;;7.50;99.90;;;;;;5093071;28;20048;-72
2023/04/15 00:53:33;;;;;;;14.82;5.07;;;7.50;99.90;;;;;;5086589;28;20058;-71
2023/04/15 00:55:58;;;;;;;13.77;4.82;;;7.50;99.90;;;;;;5095735;28;20130;-71
2023/04/15 00:58:26;;;;;;;7.75;4.20;;;7.50;99.90;;;;;;5113272;28;20083;-72
2023/04/15 01:00:54;;;;;;;9.82;4.53;;;7.50;99.90;;;;;;5095877;28;20059;-70
2023/04/15 01:03:20;;;;;;;10.70;4.95;;;7.50;99.90;;;;;;5111835;28;20054;-72
2023/04/15 01:05:46;;;;;;;11.27;4.53;;;7.50;99.90;;;;;;5110681;28;20043;-70
2023/04/15 01:08:12;;;;;;;9.32;4.55;;;7.50;99.90;;;;;;5110849;28;20043;-70
2023/04/15 01:10:38;;;;;;;11.43;5.00;;;7.50;99.90;;;;;;5113459;28;20066;-70
2023/04/15 01:13:04;;;;;;;12.00;4.70;;;7.50;99.90;;;;;;5113018;28;20544;-76
2023/04/15 01:15:30;;;;;;;10.23;4.90;;;7.50;99.90;;;;;;5090953;28;20135;-71
2023/04/15 01:17:58;;;;;;;11.07;4.95;;;7.50;99.90;;;;;;5074420;28;20117;-71
2023/04/15 01:20:23;;;;;;;9.23;4.50;;;7.50;99.90;;;;;;5091853;28;20040;-72
2023/04/15 01:22:50;;;;;;;11.35;5.45;;;7.40;99.90;;;;;;5074163;28;20083;-70
2023/04/15 01:25:26;;;;;;;10.93;5.13;;;7.40;99.90;;;;;;5092247;28;20144;-73
2023/04/15 01:27:51;;;;;;;14.60;5.43;;;7.40;99.90;;;;;;5111076;28;20044;-72
2023/04/15 01:30:17;;;;;;;8.30;4.47;;;7.40;99.90;;;;;;5086545;28;20048;-71
2023/04/15 01:32:43;;;;;;;8.68;4.57;;;7.20;99.90;;;;;;5106569;28;20507;-72
2023/04/15 01:35:09;;;;;;;9.80;4.57;;;7.30;99.90;;;;;;5111315;28;20051;-71
2023/04/15 01:37:35;;;;;;;;;;;7.20;99.90;;;;;;5094599;28;20040;-70
2023/04/15 01:40:02;;;;;;;11.57;5.05;;;7.20;99.90;;;;;;5095141;28;19920;-71
2023/04/15 01:42:27;;;;;;;9.93;5.05;;;7.10;99.90;;;;;;5093951;28;20040;-71
2023/04/15 01:44:53;;;;;;;11.70;4.95;;;7.00;99.90;;;;;;5092768;28;20101;-70
2023/04/15 01:47:19;;;;;;;13.93;5.18;;;7.00;99.90;;;;;;5091115;28;20070;-72
2023/04/15 01:49:45;;;;;;;13.70;5.13;;;6.90;99.90;;;;;;5101733;28;20043;-72
2023/04/15 01:52:11;;;;;;;9.45;5.07;;;6.90;99.90;;;;;;5076096;28;20043;-72
2023/04/15 01:54:36;;;;;;;13.18;5.25;;;6.80;99.90;;;;;;5092507;28;20047;-70
2023/04/15 01:57:02;;;;;;;12.95;5.38;;;6.70;99.90;;;;;;5092311;28;20126;-70
2023/04/15 01:59:30;;;;;;;10.13;4.90;;;6.70;99.90;;;;;;5073859;28;20276;-70
2023/04/15 02:01:56;;;;;;;11.25;4.90;;;6.60;99.90;;;;;;5091630;28;20079;-71
2023/04/15 02:04:22;;;;;;;12.20;5.97;;;6.60;99.90;;;;;;5102175;28;20480;-70
2023/04/15 02:06:48;;;;;;;;;;;6.60;99.90;;;;;;5094041;28;20094;-72
2023/04/15 02:09:13;;;;;;;8.70;4.55;;;6.50;99.90;;;;;;5092772;28;19962;-72
2023/04/15 02:11:39;;;;;;;9.82;5.68;;;6.50;99.90;;;;;;5051391;28;20065;-71
2023/04/15 02:14:05;;;;;;;10.98;5.43;;;6.50;99.90;;;;;;5059315;28;20124;-72
2023/04/15 02:16:31;;;;;;;12.32;5.45;;;6.40;99.90;;;;;;5070225;28;20056;-71
2023/04/15 02:18:58;;;;;;;10.50;5.40;;;6.40;99.90;;;;;;5070488;28;20036;-70
2023/04/15 02:21:25;;;;;;;11.43;5.53;;;6.30;99.90;;;;;;5071028;28;20044;-72
2023/04/15 02:23:52;;;;;;;12.18;5.80;;;6.40;99.90;;;;;;5070632;28;20177;-70
2023/04/15 02:26:18;;;;;;;12.82;5.32;;;6.30;99.90;;;;;;5053405;28;20478;-71
2023/04/15 02:28:44;;;;;;;11.93;5.63;;;6.30;99.90;;;;;;5034226;28;20458;-70
2023/04/15 02:31:10;;;;;;;10.60;5.40;;;6.20;99.90;;;;;;5050787;28;20055;-76
2023/04/15 02:33:36;;;;;;;11.77;6.18;;;6.10;99.90;;;;;;5058174;28;20094;-72
2023/04/15 02:36:02;;;;;;;11.73;5.15;;;6.20;99.90;;;;;;5070128;28;20052;-71
2023/04/15 02:38:29;;;;;;;;;;;6.10;99.90;;;;;;5058141;28;20175;-71
2023/04/15 02:40:55;;;;;;;10.52;5.25;;;6.10;99.90;;;;;;5066970;28;19921;-70
2023/04/15 02:43:21;;;;;;;10.75;5.10;;;6.10;99.90;;;;;;5049585;28;20057;-71
2023/04/15 02:45:47;;;;;;;12.40;5.95;;;6.00;99.90;;;;;;5057558;28;20395;-70
2023/04/15 02:48:12;;;;;;;;;;;6.00;99.90;;;;;;5052464;28;20044;-76
2023/04/15 02:50:39;;;;;;;14.18;5.30;;;6.00;99.90;;;;;;5069622;28;20368;-71
2023/04/15 02:53:05;;;;;;;12.63;4.80;;;5.90;99.90;;;;;;5052751;28;20059;-70
2023/04/15 02:55:31;;;;;;;12.00;5.63;;;5.80;99.90;;;;;;5067671;28;20044;-70
2023/04/15 02:57:59;;;;;;;13.93;5.63;;;5.80;99.90;;;;;;5069860;28;20066;-70
2023/04/15 03:00:25;;;;;;;12.85;5.90;;;5.80;99.90;;;;;;5070503;28;20044;-71
2023/04/15 03:02:55;;;;;;;12.13;5.47;;;5.90;99.90;;;;;;5056284;28;20075;-70
2023/04/15 03:05:24;;;;;;;10.45;5.63;;;5.80;99.90;;;;;;5049833;28;20056;-70
2023/04/15 03:07:53;;;;;;;11.10;5.47;;;5.80;99.90;;;;;;5048628;28;20041;-71
2023/04/15 03:10:19;;;;;;;11.85;5.68;;;5.70;99.90;;;;;;5072650;28;20184;-71
2023/04/15 03:12:45;;;;;;;11.57;6.05;;;5.60;99.90;;;;;;5078540;28;20048;-70
2023/04/15 03:15:11;;;;;;;12.02;5.93;;;5.60;99.90;;;;;;5075144;28;20067;-72
2023/04/15 03:17:37;;;;;;;15.02;5.60;;;5.50;99.90;;;;;;5073628;28;20059;-70
2023/04/15 03:20:04;;;;;;;12.63;5.78;;;5.50;99.90;;;;;;5091979;28;20072;-70
2023/04/15 03:22:30;;;;;;;10.82;5.28;;;5.40;99.90;;;;;;5089337;28;20130;-70
2023/04/15 03:24:56;;;;;;;15.18;6.60;;;5.40;99.90;;;;;;5090938;28;20090;-71
2023/04/15 03:27:22;;;;;;;11.88;6.15;;;5.40;99.90;;;;;;5072342;28;20083;-71
2023/04/15 03:29:47;;;;;;;13.88;6.22;;;5.40;99.90;;;;;;5072872;28;20056;-70
2023/04/15 03:32:14;;;;;;;12.77;5.53;;;5.40;99.90;;;;;;5072300;28;20114;-70
2023/04/15 03:34:40;;;;;;;;;;;5.30;99.90;;;;;;5072406;28;20056;-70
2023/04/15 03:37:06;;;;;;;13.38;6.15;;;5.30;99.90;;;;;;5092302;28;19931;-70
2023/04/15 03:39:32;;;;;;;;;;;5.20;99.90;;;;;;5090773;28;20056;-70
2023/04/15 03:41:58;;;;;;;15.38;5.90;;;5.20;99.90;;;;;;5072825;28;19920;-70
2023/04/15 03:44:25;;;;;;;12.15;5.95;;;5.10;99.90;;;;;;5109942;28;20123;-71
2023/04/15 03:46:51;;;;;;;14.52;7.28;;;5.20;99.90;;;;;;5109868;28;20500;-70
2023/04/15 03:49:18;;;;;;;13.90;6.10;;;5.20;99.90;;;;;;5110336;28;20044;-76
2023/04/15 03:51:44;;;;;;;16.60;6.85;;;5.10;99.90;;;;;;5110128;28;20564;-71
2023/04/15 03:54:10;;;;;;;14.52;6.63;;;5.10;99.90;;;;;;5109357;28;20446;-70
2023/04/15 03:56:36;;;;;;;20.77;6.53;;;5.10;99.90;;;;;;5105117;28;20148;-70
2023/04/15 03:59:02;;;;;;;12.77;6.18;;;5.10;99.90;;;;;;5076324;28;20106;-70
2023/04/15 04:01:27;;;;;;;16.52;6.80;;;5.10;99.90;;;;;;5095216;28;20048;-70
2023/04/15 04:03:53;;;;;;;15.05;6.45;;;5.10;99.90;;;;;;5093229;28;20052;-70
2023/04/15 04:06:19;;;;;;;13.48;6.57;;;5.10;99.90;;;;;;5095346;28;20101;-75
2023/04/15 04:08:45;;;;;;;17.38;6.03;;;5.00;99.90;;;;;;5095649;28;20052;-70
2023/04/15 04:11:10;;;;;;;17.55;6.55;;;5.00;99.90;;;;;;5096468;28;20073;-70
2023/04/15 04:13:36;;;;;;;13.88;6.47;;;5.10;99.90;;;;;;5114066;28;20064;-72
2023/04/15 04:16:03;;;;;;;16.90;6.70;;;5.00;99.90;;;;;;5101995;28;20044;-70
2023/04/15 04:18:30;;;;;;;13.60;6.35;;;5.10;99.90;;;;;;5101844;28;20087;-70
2023/04/15 04:20:56;;;;;;;16.88;6.47;;;5.10;99.90;;;;;;5114557;28;20043;-71
2023/04/15 04:23:22;;;;;;;14.65;6.50;;;5.00;99.90;;;;;;5109547;28;20377;-70
2023/04/15 04:25:47;;;;;;;13.98;6.47;;;5.10;99.90;;;;;;5112010;28;20054;-70
2023/04/15 04:28:13;;;;;;;18.25;7.38;;;5.00;99.90;;;;;;5093896;28;20048;-70
2023/04/15 04:30:39;;;;;;;15.65;7.30;;;5.00;99.90;;;;;;5098836;28;20047;-70
2023/04/15 04:33:06;;;;;;;14.30;6.53;;;4.90;99.90;;;;;;5113597;28;20113;-70
2023/04/15 04:35:33;;;;;;;14.55;6.57;;;4.90;99.90;;;;;;5113530;28;20400;-70
2023/04/15 04:38:00;;;;;;;14.65;6.03;;;4.90;99.90;;;;;;5087545;28;20047;-70
2023/04/15 04:40:26;;;;;;;20.73;7.65;;;4.90;99.90;;;;;;5093305;28;20087;-73
2023/04/15 04:42:53;;;;;;;13.43;6.13;;;4.90;99.90;;;;;;5093916;28;20473;-71
2023/04/15 04:45:19;;;;;;;15.50;6.82;;;4.90;99.90;;;;;;5078391;28;20047;-71
2023/04/15 04:47:45;;;;;;;14.45;6.63;;;4.80;99.90;;;;;;5094613;28;20055;-70
2023/04/15 04:50:11;;;;;;;15.45;7.30;;;4.80;99.90;;;;;;5086454;28;20054;-70
2023/04/15 04:52:37;;;;;;;13.27;7.00;;;4.70;99.90;;;;;;5079085;28;20130;-70
2023/04/15 04:55:03;;;;;;;15.38;7.47;;;4.70;99.90;;;;;;5095453;28;20055;-70
2023/04/15 04:57:29;;;;;;;;;;;4.70;99.90;;;;;;5113066;28;20461;-71
2023/04/15 04:59:55;;;;;;;18.50;7.10;;;4.70;99.90;;;;;;5095376;28;20057;-71
2023/04/15 05:02:21;;;;;;;16.85;6.65;;;4.70;99.90;;;;;;5091584;28;20047;-75
2023/04/15 05:04:47;;;;;;;16.23;7.40;;;4.70;99.90;;;;;;5093447;28;20127;-71
2023/04/15 05:07:12;;;;;;;14.77;6.80;;;4.70;99.90;;;;;;5074090;28;20051;-70
2023/04/15 05:09:38;;;;;;;16.90;7.32;;;4.60;99.90;;;;;;5091398;28;20169;-71
2023/04/15 05:12:04;;;;;;;16.67;7.07;;;4.90;99.90;;;;;;5093213;28;20101;-72
2023/04/15 05:14:31;;;;;;;15.68;6.60;;;4.70;99.90;;;;;;5102204;28;20058;-70
2023/04/15 05:16:56;;;;;;;18.05;6.72;;;4.60;99.90;;;;;;5112882;28;20173;-70
2023/04/15 05:19:22;;;;;;;18.05;7.22;;;4.60;99.90;;;;;;5111464;28;20532;-75
2023/04/15 05:21:48;;;;;;;16.58;6.90;;;4.60;99.90;;;;;;5111372;28;20047;-71
2023/04/15 05:24:13;;;;;;;15.13;7.47;;;4.60;99.90;;;;;;5109446;28;20504;-72
2023/04/15 05:26:39;;;;;;;14.30;7.10;;;4.60;99.90;;;;;;5094427;28;20806;-71
2023/04/15 05:29:05;;;;;;;17.75;6.65;;;4.70;99.90;;;;;;5087472;28;20491;-70
2023/04/15 05:31:31;;;;;;;15.27;6.35;;;4.70;99.90;;;;;;5092367;28;20079;-71
2023/04/15 05:33:57;;;;;;;13.70;6.60;;;4.70;99.90;;;;;;5091849;28;20090;-71
2023/04/15 05:36:23;;;;;;;15.88;7.05;;;5.10;99.90;;;;;;5092754;28;20127;-75
2023/04/15 05:38:48;;;;;;;18.58;7.55;;;4.80;99.90;;;;;;5091627;28;20048;-70
2023/04/15 05:41:17;;;;;;;16.85;7.30;;;4.90;99.90;;;;;;5092630;28;20555;-72
2023/04/15 05:43:43;;;;;;;18.40;7.50;;;5.00;99.90;;;;;;5099388;28;20047;-71
2023/04/15 05:46:08;;;;;;;17.77;7.72;;;4.80;99.90;;;;;;5096151;28;20105;-71
2023/04/15 05:48:34;;;;;;;14.43;6.75;;;4.90;99.90;;;;;;5090851;28;20048;-70
2023/04/15 05:51:00;;;;;;;17.30;7.35;;;4.80;99.90;;;;;;5092541;28;20052;-70
2023/04/15 05:53:26;;;;;;;18.55;7.40;;;4.90;99.90;;;;;;5106767;28;20044;-76
2023/04/15 05:55:51;;;;;;;15.13;6.80;;;4.80;99.90;;;;;;5078010;28;20469;-71
2023/04/15 05:58:17;;;;;;;17.65;6.95;;;5.00;99.90;;;;;;5101364;28;20097;-71
2023/04/15 06:00:43;;;;;;;16.63;7.70;;;5.10;99.90;;;;;;5091958;28;20488;-71
2023/04/15 06:03:10;;;;;;;17.30;7.90;;;5.10;99.90;;;;;;5103535;28;20047;-71
2023/04/15 06:05:36;;;;;;;19.25;8.13;;;5.20;99.90;;;;;;5093136;28;20052;-71
2023/04/15 06:08:02;;;;;;;17.65;7.03;;;5.30;99.90;;;;;;5102715;28;20044;-70
2023/04/15 06:10:28;;;;;;;21.08;7.78;;;5.40;99.90;;;;;;5079079;28;20059;-75
2023/04/15 06:12:53;;;;;;;17.77;7.13;;;5.50;99.90;;;;;;5112413;28;20060;-67
2023/04/15 06:15:19;;;;;;;14.93;7.47;;;5.50;99.90;;;;;;5112111;28;20052;-77
2023/04/15 06:17:45;;;;;;;16.38;7.03;;;5.60;99.90;;;;;;5110947;28;20040;-72
2023/04/15 06:20:11;;;;;;;18.65;7.78;;;5.80;99.90;;;;;;5111369;28;20087;-72
2023/04/15 06:22:38;;;;;;;;;;;5.90;99.90;;;;;;5093085;28;20116;-73
2023/04/15 06:25:04;;;;;;;14.75;6.85;;;6.00;99.90;;;;;;5109557;28;20053;-73
2023/04/15 06:27:30;;;;;;;15.40;8.00;;;6.10;99.90;;;;;;5109934;28;20058;-73
2023/04/15 06:29:55;;;;;;;15.95;7.65;;;6.20;99.90;;;;;;5073551;28;20374;-69
2023/04/15 06:32:21;;;;;;;16.95;7.68;;;6.30;99.90;;;;;;5091098;28;20056;-69
2023/04/15 06:34:47;;;;;;;20.90;7.03;;;6.40;99.90;;;;;;5103876;28;20054;-70
2023/04/15 06:37:15;;;;;;;18.98;7.80;;;6.50;99.90;;;;;;5094587;28;20478;-68
2023/04/15 06:39:42;;;;;;;18.13;6.75;;;6.60;99.90;;;;;;5091062;28;20048;-70
2023/04/15 06:42:08;;;;;;;16.23;7.28;;;6.70;99.90;;;;;;5091297;28;20051;-68
2023/04/15 06:44:35;;;;;;;15.13;6.85;;;6.80;99.90;;;;;;5090668;28;20147;-68
2023/04/15 06:47:01;;;;;;;14.50;6.65;;;7.00;99.90;;;;;;5090756;28;20098;-69
2023/04/15 06:49:27;;;;;;;16.17;6.78;;;7.10;99.90;;;;;;5095890;28;20052;-69
2023/04/15 06:51:53;;;;;;;13.95;6.50;;;7.20;99.90;;;;;;5100443;28;20106;-69
2023/04/15 06:54:18;;;;;;;16.95;6.38;;;7.30;99.90;;;;;;5111737;28;20059;-68
2023/04/15 06:56:44;;;;;;;15.93;7.40;;;7.40;99.90;;;;;;5111120;28;20044;-71
2023/04/15 06:59:10;;;;;;;14.48;7.07;;;7.50;99.90;;;;;;5092632;28;20057;-64
2023/04/15 07:01:35;;;;;;;15.52;7.30;;;7.60;99.90;;;;;;5110198;28;20055;-67
2023/04/15 07:04:01;;;;;;;16.27;6.05;;;7.70;99.90;;;;;;5110628;28;20141;-64
2023/04/15 07:06:27;;;;;;;15.27;7.07;;;7.80;99.90;;;;;;5109198;28;20496;-64
2023/04/15 07:08:53;;;;;;;15.15;6.65;;;7.80;99.90;;;;;;5079706;28;20051;-70
2023/04/15 07:11:20;;;;;;;13.30;6.82;;;7.90;99.90;;;;;;5080105;28;20056;-69
2023/04/15 07:13:45;;;;;;;12.68;5.35;;;8.00;99.90;;;;;;5070148;28;20052;-69
2023/04/15 07:16:11;;;;;;;11.70;5.55;;;8.00;99.90;;;;;;5070933;28;20045;-68
2023/04/15 07:18:37;;;;;;;13.20;5.35;;;8.10;99.90;;;;;;5067757;28;20052;-68
2023/04/15 07:21:03;;;;;;;12.13;5.18;;;8.00;99.90;;;;;;5070797;28;20091;-68
2023/04/15 07:23:31;;;;;;;13.07;5.80;;;8.10;99.90;;;;;;5069945;28;20485;-68
2023/04/15 07:25:57;;;;;;;10.85;5.20;;;8.20;99.90;;;;;;5070147;28;20045;-69
2023/04/15 07:28:22;;;;;;;10.00;4.80;;;8.20;99.90;;;;;;5067220;28;20041;-70
2023/04/15 07:30:48;;;;;;;10.85;5.75;;;8.30;99.90;;;;;;5069978;28;20056;-68
2023/04/15 07:33:14;;;;;;;11.02;4.82;;;8.40;99.90;;;;;;5069509;28;20053;-71
2023/04/15 07:35:40;;;;;;;8.80;4.18;;;8.40;99.90;;;;;;5068570;28;20060;-68
2023/04/15 07:38:05;;;;;;;10.32;4.57;;;8.40;99.90;;;;;;5053808;28;20053;-69
2023/04/15 07:40:32;;;;;;;10.73;4.28;;;8.50;99.90;;;;;;5050605;28;20452;-72
2023/04/15 07:42:57;;;;;;;8.98;4.38;;;8.50;99.90;;;;;;5050066;28;20116;-68
2023/04/15 07:45:23;;;;;;;10.23;3.90;;;8.50;99.90;;;;;;5050328;28;20108;-70
2023/04/15 07:47:52;;;;;;;11.23;4.80;;;8.70;99.90;;;;;;5048021;28;20135;-69
2023/04/15 07:50:18;;;;;;;11.38;3.85;;;8.80;99.90;;;;;;5062857;28;20037;-69
2023/04/15 07:52:44;;;;;;;8.82;3.97;;;8.80;99.90;;;;;;5076831;28;20053;-71
2023/04/15 07:55:10;;;;;;;10.57;4.22;;;8.90;99.90;;;;;;5069868;28;20056;-70
2023/04/15 07:57:36;;;;;;;11.27;4.78;;;9.00;99.90;;;;;;5069816;28;20087;-75
2023/04/15 08:00:06;;;;;;;8.35;3.38;;;9.10;99.90;;;;;;5070210;28;20044;-70
2023/04/15 08:02:32;;;;;;;8.00;3.97;;;9.20;99.90;;;;;;5049655;28;20486;-70
2023/04/15 08:04:58;;;;;;;7.90;3.60;;;9.30;99.90;;;;;;5049428;28;20055;-70
2023/04/15 08:07:25;;;;;;;12.05;4.18;;;9.30;99.90;;;;;;5049288;28;20045;-70
2023/04/15 08:09:51;;;;;;;8.68;3.85;;;9.30;99.90;;;;;;5051085;28;20060;-68
2023/04/15 08:12:16;;;;;;;10.07;4.18;;;9.40;99.90;;;;;;5109069;28;20059;-70
2023/04/15 08:14:42;;;;;;;8.15;3.47;;;9.50;99.90;;;;;;5109402;28;20093;-70
2023/04/15 08:17:08;;;;;;;14.57;4.55;;;9.60;99.90;;;;;;5107781;28;20046;-71
2023/04/15 08:19:34;;;;;;;8.07;3.88;;;9.70;99.90;;;;;;5090840;28;20097;-71
2023/04/15 08:22:00;;;;;;;8.88;3.75;;;9.80;99.90;;;;;;5107908;28;20051;-70
2023/04/15 08:24:26;;;;;;;7.78;3.53;;;9.90;99.90;;;;;;5106916;28;20047;-70
2023/04/15 08:26:52;;;;;;;6.43;3.50;;;9.90;99.90;;;;;;5075837;28;20055;-70
2023/04/15 08:29:17;;;;;;;11.00;4.60;;;9.90;99.90;;;;;;5109549;28;20091;-70
2023/04/15 08:31:44;;;;;;;11.63;4.22;;;9.80;99.90;;;;;;5100123;28;20389;-69
2023/04/15 08:34:13;;;;;;;6.93;3.60;;;9.80;99.90;;;;;;5079824;28;20097;-70
2023/04/15 08:36:40;;;;;;;6.78;2.88;;;9.90;99.90;;;;;;5090055;28;20050;-72
2023/04/15 08:39:05;;;;;;;6.40;3.08;;;10.00;99.90;;;;;;5102007;28;20125;-70
2023/04/15 08:41:48;;;;;;;5.82;2.60;;;10.10;99.90;;;;;;5089452;28;20126;-72
2023/04/15 08:44:14;;;;;;;6.53;2.33;;;10.20;99.90;;;;;;5091786;28;20044;-70
2023/04/15 08:46:41;;;;;;;6.70;2.83;;;10.20;99.90;;;;;;5091809;28;20572;-75
2023/04/15 08:49:11;;;;;;;6.57;2.55;;;10.30;99.90;;;;;;5092476;28;20062;-70
2023/04/15 08:51:39;;;;;;;5.72;3.00;;;10.40;99.90;;;;;;5099109;28;20043;-72
2023/04/15 08:54:05;;;;;;;5.35;2.35;;;10.50;99.90;;;;;;5075836;28;20138;-71
2023/04/15 08:56:31;;;;;;;4.63;2.60;;;10.50;99.90;;;;;;5094555;28;20090;-70
2023/04/15 08:58:59;;;;;;;4.55;2.20;;;10.60;99.90;;;;;;5078677;28;20047;-71
2023/04/15 09:01:25;;;;;;;3.08;1.98;;;10.50;99.90;;;;;;5103129;28;20119;-71
2023/04/15 09:03:52;;;;;;;;;;;10.50;99.90;;;;;;5109898;27;20382;-71
2023/04/15 09:06:17;;;;;;;6.18;2.63;;;10.40;99.90;;;;;;5104843;28;19924;-71
2023/04/15 09:08:43;;;;;;;6.57;2.70;;;10.40;99.90;;;;;;5101859;28;20401;-71
2023/04/15 09:11:10;;;;;;;5.70;2.65;;;10.30;99.90;;;;;;5102386;28;20135;-70
2023/04/15 09:13:35;;;;;;;6.63;2.70;;;10.30;99.90;;;;;;5110751;28;20580;-69
2023/04/15 09:16:03;;;;;;;4.95;2.50;;;10.30;99.90;;;;;;5113192;28;20047;-69
2023/04/15 09:18:30;;;;;;;5.72;2.35;;;10.30;99.90;;;;;;5112214;28;20047;-70
2023/04/15 09:21:04;;;;;;;4.93;2.70;;;10.30;99.90;;;;;;5076243;28;20043;-72
2023/04/15 09:23:30;;;;;;;3.67;2.20;;;10.40;99.90;;;;;;5112095;28;20058;-71
2023/04/15 09:25:56;;;;;;;8.73;2.97;;;10.40;99.90;;;;;;5112568;28;20672;-71
2023/04/15 09:28:25;;;;;;;5.57;2.20;;;10.30;99.90;;;;;;5112487;28;20098;-70
2023/04/15 09:30:57;;;;;;;4.55;2.13;;;10.30;99.90;;;;;;5112760;28;20079;-70
2023/04/15 09:33:27;;;;;;;4.65;2.10;;;10.30;99.90;;;;;;5094178;28;20088;-71
2023/04/15 09:35:58;;;;;;;3.70;1.98;;;10.30;99.90;;;;;;5075798;28;20078;-70
2023/04/15 09:38:24;;;;;;;4.93;2.08;;;10.30;99.90;;;;;;5101248;28;20105;-71
2023/04/15 09:40:50;;;;;;;4.63;2.33;;;10.30;99.90;;;;;;5092333;28;20101;-70
2023/04/15 09:43:16;;;;;;;5.75;2.00;;;10.30;99.90;;;;;;5102650;28;20126;-72
2023/04/15 09:45:52;;;;;;;3.95;2.00;;;10.30;99.90;;;;;;5112860;28;20051;-74
2023/04/15 09:48:25;;;;;;;5.88;2.15;;;10.30;99.90;;;;;;5093377;28;20484;-72
2023/04/15 09:50:56;;;;;;;6.38;2.40;;;10.30;99.90;;;;;;5094182;28;20050;-73
2023/04/15 09:53:23;;;;;;;5.15;2.20;;;10.30;99.90;;;;;;5111402;28;20091;-70
2023/04/15 09:55:54;;;;;;;4.45;1.98;;;10.30;99.90;;;;;;5110715;28;20047;-70
2023/04/15 09:58:28;;;;;;;6.03;2.22;;;10.30;99.90;;;;;;5108313;28;20488;-70
2023/04/15 10:00:55;;;;;;;3.17;1.70;;;10.20;99.90;;;;;;5112140;28;20047;-71
2023/04/15 10:03:48;;;;;;;3.60;1.85;;;10.20;99.90;;;;;;5092811;28;20092;-71
2023/04/15 10:06:14;;;;;;;4.72;2.00;;;10.20;99.90;;;;;;5072414;28;20066;-75
2023/04/15 10:08:40;;;;;;;6.97;2.10;;;10.30;99.90;;;;;;5109690;28;20047;-71
2023/04/15 10:11:07;;;;;;;5.97;2.13;;;10.40;99.90;;;;;;5111564;28;20059;-71
2023/04/15 10:13:36;;;;;;;4.35;2.00;;;10.40;99.90;;;;;;5097219;28;20448;-71
2023/04/15 10:16:13;;;;;;;6.05;1.92;;;10.40;99.90;;;;;;5093983;28;20060;-71
2023/04/15 10:18:42;;;;;;;3.05;1.80;;;10.40;99.90;;;;;;5108332;28;20074;-70
2023/04/15 10:21:08;;;;;;;3.78;1.90;;;10.40;99.90;;;;;;5092873;28;20058;-70
2023/04/15 10:23:35;;;;;;;4.90;1.98;;;10.40;99.90;;;;;;5089495;28;20036;-72
2023/04/15 10:26:03;;;;;;;5.78;1.88;;;10.30;99.90;;;;;;5111263;28;20480;-70
2023/04/15 10:28:28;;;;;;;5.57;1.85;;;10.30;99.90;;;;;;5093005;28;20039;-72
2023/04/15 10:30:55;;;;;;;3.85;2.08;;;10.30;99.90;;;;;;5092058;28;20055;-72
2023/04/15 10:33:23;;;;;;;5.07;2.03;;;10.30;99.90;;;;;;5091862;28;20047;-72
2023/04/15 10:35:51;;;;;;;3.20;1.88;;;10.30;99.90;;;;;;5109607;28;20062;-71
2023/04/15 10:38:43;;;;;;;3.85;1.60;;;10.40;99.90;;;;;;5107228;28;20063;-72
2023/04/15 10:41:30;;;;;;;3.75;1.52;;;10.50;99.90;;;;;;5106738;28;20052;-71
2023/04/15 10:44:03;;;;;;;7.15;2.08;;;10.60;99.90;;;;;;5107931;28;20068;-71
2023/04/15 10:46:36;;;;;;;3.50;1.40;;;10.60;99.90;;;;;;5101094;28;20044;-70
2023/04/15 10:49:12;;;;;;;4.68;1.58;;;10.70;99.90;;;;;;5109664;28;20122;-70
2023/04/15 10:51:51;;;;;;;9.32;1.80;;;10.70;99.90;;;;;;5107898;28;20126;-70
2023/04/15 10:54:23;;;;;;;3.90;1.77;;;10.70;99.90;;;;;;5109715;28;20545;-71
2023/04/15 10:57:08;;;;;;;5.38;1.73;;;10.60;99.90;;;;;;5091420;28;20047;-76
2023/04/15 10:59:57;;;;;;;4.68;1.58;;;10.60;99.90;;;;;;5107439;28;20044;-71
2023/04/15 11:02:44;;;;;;;4.72;1.63;;;10.60;99.90;;;;;;5106873;28;20122;-71
2023/04/15 11:05:11;;;;;;;2.60;1.58;;;10.50;99.90;;;;;;5089291;28;20511;-72
2023/04/15 11:07:38;;;;;;;3.55;1.83;;;10.50;99.90;;;;;;5107607;28;20063;-71
2023/04/15 11:10:24;;;;;;;6.45;2.22;;;10.50;99.90;;;;;;5109116;28;20050;-72
2023/04/15 11:12:52;;;;;;;6.18;1.73;;;10.40;99.90;;;;;;5107761;28;20067;-76
2023/04/15 11:15:40;;;;;;;8.05;1.77;;;10.40;99.90;;;;;;5109288;28;20780;-70
2023/04/15 11:18:13;;;;;;;4.15;1.95;;;10.40;99.90;;;;;;5093436;28;20054;-71
2023/04/15 11:20:46;;;;;;;5.13;1.77;;;10.40;99.90;;;;;;5100503;28;20495;-70
2023/04/15 11:23:19;;;;;;;4.55;1.98;;;10.40;99.90;;;;;;5077380;28;20059;-70
2023/04/15 11:25:45;;;;;;;2.13;1.60;;;10.50;99.90;;;;;;5093130;28;20132;-71
2023/04/15 11:28:11;;;;;;;1.83;1.40;;;10.50;99.90;;;;;;5092495;28;20122;-70
2023/04/15 11:30:39;;;;;;;3.15;1.40;;;10.60;99.90;;;;;;5109654;28;20488;-71
2023/04/15 11:33:08;;;;;;;5.43;1.90;;;10.60;99.90;;;;;;5094571;28;20054;-72
2023/04/15 11:35:34;;;;;;;3.50;1.45;;;10.70;99.90;;;;;;5089634;28;20051;-71
2023/04/15 11:38:04;;;;;;;;;;;10.70;99.90;;;;;;5088090;28;20048;-70
2023/04/15 11:40:32;;;;;;;5.47;1.42;;;10.80;99.90;;;;;;5105887;28;19928;-71
2023/04/15 11:43:15;;;;;;;1.70;1.20;;;10.80;99.90;;;;;;5087207;28;20512;-70
2023/04/15 11:45:55;;;;;;;2.63;1.33;;;10.80;99.90;;;;;;5092098;28;20082;-70
2023/04/15 11:48:25;;;;;;;3.58;1.85;;;10.80;99.90;;;;;;5088456;28;20089;-72
2023/04/15 11:50:56;;;;;;;2.92;1.20;;;10.70;99.90;;;;;;5091819;28;20044;-73
2023/04/15 11:53:23;;;;;;;2.38;1.10;;;10.70;99.90;;;;;;5108456;28;20047;-71
2023/04/15 11:55:52;;;;;;;1.67;1.10;;;10.80;99.90;;;;;;5105836;28;20088;-70
2023/04/15 11:58:19;;;;;;;4.85;1.65;;;10.90;99.90;;;;;;5107200;28;20038;-71
2023/04/15 12:00:58;;;;;;;3.13;1.55;;;10.90;99.90;;;;;;5109557;28;20585;-72
2023/04/15 12:03:29;;;;;;;6.30;1.40;;;10.90;99.90;;;;;;5105677;28;20063;-71
2023/04/15 12:06:17;;;;;;;6.15;1.52;;;10.80;99.90;;;;;;5106380;28;20100;-74
2023/04/15 12:09:11;;;;;;;6.70;1.83;;;10.80;99.90;;;;;;5096889;28;20059;-70
2023/04/15 12:11:46;;;;;;;4.60;1.60;;;10.70;99.90;;;;;;5096488;28;20056;-71
2023/04/15 12:14:18;;;;;;;5.75;1.85;;;10.70;99.90;;;;;;5109220;28;20051;-71
2023/04/15 12:16:46;;;;;;;5.22;1.95;;;10.70;99.90;;;;;;5091354;28;20047;-71
2023/04/15 12:19:16;;;;;;;2.55;1.50;;;10.80;99.90;;;;;;5109436;28;20145;-70
2023/04/15 12:21:47;;;;;;;4.65;1.45;;;10.80;99.90;;;;;;5090273;28;20054;-71
2023/04/15 12:24:13;;;;;;;3.53;1.63;;;10.90;99.90;;;;;;5092678;28;20053;-70
2023/04/15 12:26:47;;;;;;;3.22;1.40;;;11.10;99.90;;;;;;5096516;28;20051;-70
2023/04/15 12:29:15;;;;;;;6.15;1.70;;;11.10;99.90;;;;;;5112948;28;20071;-70
2023/04/15 12:31:51;;;;;;;3.92;1.45;;;11.10;99.90;;;;;;5095715;28;20052;-71
2023/04/15 12:34:24;;;;;;;6.47;2.10;;;11.10;99.90;;;;;;5095093;28;20128;-70
2023/04/15 12:36:50;;;;;;;2.78;1.60;;;11.00;99.90;;;;;;5113199;28;20397;-71
2023/04/15 12:39:16;;;;;;;4.93;1.80;;;10.90;99.90;;;;;;5109476;28;20046;-71
2023/04/15 12:41:41;;;;;;;4.05;1.77;;;10.80;99.90;;;;;;5105684;28;20045;-69
2023/04/15 12:44:07;;;;;;;5.03;1.60;;;10.80;99.90;;;;;;5083729;28;20040;-69
2023/04/15 12:46:33;;;;;;;6.35;1.38;;;10.80;99.90;;;;;;5095415;28;20499;-72
2023/04/15 12:48:59;;;;;;;5.40;1.70;;;10.70;99.90;;;;;;5112161;28;20101;-75
2023/04/15 12:51:26;;;;;;;4.80;1.80;;;10.70;99.90;;;;;;5091786;28;20044;-69
2023/04/15 12:53:52;;;;;;;2.75;1.63;;;10.70;99.90;;;;;;5092417;28;20113;-70